Moon River — PE2053 — position and weather

sailwx.info

Track history (hours):
 
Tides and Currents Weather Stations Pressure Air Temp Water Temp Dewpoint Dewpoint Depression Visibility Wind Speed Wind Dir Waves Ship Positions

Moon River

Last reported at 2016-Jul-25 04:33 UTC. Time now 2016-Jul-25 06:12 UTC.
Position N 43°34' E 007°07'.

Length 24 m.

Type: Pleasure craft. MMSI: 244010895.

Date/timePositionNaut miles runAvg speedWind from/ knotsBaromVisibWave heightAir tempDewpointWater temp
2016-Jul-25 04:33N 43°34' E 007°07'0 0.0
2016-Jul-25 03:32N 43°34' E 007°07'0 0.0
2016-Jul-25 02:32N 43°34' E 007°07'0 0.0
2016-Jul-25 01:26N 43°34' E 007°07'0 0.0
2016-Jul-25 00:32N 43°34' E 007°07'0 0.0
2016-Jul-24 23:32N 43°34' E 007°07'0 0.0
2016-Jul-24 22:32N 43°34' E 007°07'2 2.2
2016-Jul-24 21:29N 43°32' E 007°04'2 0.1
2016-Jul-24 04:33N 43°34' E 007°07'0 0.0
2016-Jul-24 03:27N 43°34' E 007°07'0 0.0
2016-Jul-24 02:33N 43°34' E 007°07'0 0.0
2016-Jul-24 01:27N 43°34' E 007°07'0 0.0
2016-Jul-24 00:33N 43°34' E 007°07'0 0.0
2016-Jul-23 23:21N 43°34' E 007°07'0 0.0
2016-Jul-23 22:27N 43°34' E 007°07'0 0.0
2016-Jul-23 21:33N 43°34' E 007°07'0 0.0
2016-Jul-23 20:33N 43°34' E 007°07'0 0.0
2016-Jul-23 19:27N 43°34' E 007°07'0 0.0
2016-Jul-23 18:21N 43°34' E 007°07'0 0.0
2016-Jul-23 17:33N 43°34' E 007°07'0 0.0
2016-Jul-23 16:33N 43°34' E 007°07'0 0.0
2016-Jul-23 15:33N 43°34' E 007°07'0 0.0
2016-Jul-23 14:09N 43°34' E 007°07'0 0.0
2016-Jul-23 13:33N 43°34' E 007°07'0 0.0
2016-Jul-23 12:33N 43°34' E 007°07'0 0.0
2016-Jul-23 11:33N 43°34' E 007°07'0 0.0
2016-Jul-23 10:33N 43°34' E 007°07'0 0.0
2016-Jul-23 09:33N 43°34' E 007°07'0 0.0
2016-Jul-23 08:33N 43°34' E 007°07'0 0.0
2016-Jul-23 07:27N 43°34' E 007°07'0 0.0
2016-Jul-23 06:29N 43°34' E 007°07'0 0.0
2016-Jul-23 04:17N 43°34' E 007°07'0 0.0
2016-Jul-23 03:23N 43°34' E 007°07'0 0.0
2016-Jul-23 02:29N 43°34' E 007°07'0 0.0
2016-Jul-23 01:29N 43°34' E 007°07'0 0.0
2016-Jul-23 00:23N 43°34' E 007°07'0 0.0
2016-Jul-22 23:29N 43°34' E 007°07'0 0.0
2016-Jul-22 22:30N 43°34' E 007°07'0 0.0
2016-Jul-22 21:30N 43°34' E 007°07'0 0.0
2016-Jul-22 20:29N 43°34' E 007°07'0 0.0
2016-Jul-22 19:29N 43°34' E 007°07'0 0.0
2016-Jul-22 18:33N 43°34' E 007°07'0 0.0
2016-Jul-22 17:33N 43°34' E 007°07'0 0.0
2016-Jul-22 16:12N 43°34' E 007°07'0 0.0
2016-Jul-22 15:30N 43°34' E 007°07'0 0.0
2016-Jul-22 14:30N 43°34' E 007°07'0 0.0
2016-Jul-22 13:30N 43°34' E 007°07'0 0.0
2016-Jul-22 12:30N 43°34' E 007°07'0 0.0
2016-Jul-22 11:24N 43°34' E 007°07'0 0.0
2016-Jul-22 10:30N 43°34' E 007°07'0 0.0
2016-Jul-22 09:30N 43°34' E 007°07'0 0.0
2016-Jul-22 08:30N 43°34' E 007°07'0 0.0
2016-Jul-22 07:30N 43°34' E 007°07'0 0.0
2016-Jul-22 04:30N 43°34' E 007°07'0 0.0
2016-Jul-22 03:30N 43°34' E 007°07'0 0.0
2016-Jul-22 02:30N 43°34' E 007°07'0 0.0
2016-Jul-22 01:30N 43°34' E 007°07'0 0.0
2016-Jul-22 00:12N 43°34' E 007°07'0 0.0
2016-Jul-21 23:30N 43°34' E 007°07'0 0.0
2016-Jul-21 22:30N 43°34' E 007°07'0 0.0
2016-Jul-21 21:30N 43°34' E 007°07'0 0.0
2016-Jul-21 20:30N 43°34' E 007°07'0 0.0
2016-Jul-21 19:28N 43°34' E 007°07'0 0.0
2016-Jul-21 18:22N 43°34' E 007°07'1 1.2
2016-Jul-21 17:33N 43°33' E 007°07'9 8.9
2016-Jul-21 16:31N 43°39' E 007°16'2 0.2
2016-Jul-21 06:27N 43°38' E 007°14'7 7.1
2016-Jul-21 05:30N 43°34' E 007°07'0 0.2
2016-Jul-21 04:24N 43°34' E 007°07'0 0.0
2016-Jul-21 03:30N 43°34' E 007°07'0 0.0
2016-Jul-21 02:30N 43°34' E 007°07'0 0.0
2016-Jul-21 01:30N 43°34' E 007°07'0 0.0
2016-Jul-21 00:24N 43°34' E 007°07'0 0.0
2016-Jul-20 23:30N 43°34' E 007°07'0 0.0
2016-Jul-20 22:18N 43°34' E 007°07'0 0.0
2016-Jul-20 21:30N 43°34' E 007°07'0 0.0
2016-Jul-20 20:30N 43°34' E 007°07'0 0.0
2016-Jul-20 19:30N 43°34' E 007°07'0 0.0
2016-Jul-20 18:30N 43°34' E 007°07'0 0.0
2016-Jul-20 17:30N 43°34' E 007°07'0 0.0
2016-Jul-20 16:30N 43°34' E 007°07'0 0.0
2016-Jul-20 15:21N 43°34' E 007°07'0 0.0
2016-Jul-20 14:33N 43°34' E 007°07'0 0.0
2016-Jul-20 13:33N 43°34' E 007°07'0 0.0
2016-Jul-20 12:33N 43°34' E 007°07'0 0.0
2016-Jul-20 11:27N 43°34' E 007°07'0 0.0
2016-Jul-20 10:33N 43°34' E 007°07'0 0.0
2016-Jul-20 09:27N 43°34' E 007°07'0 0.0
2016-Jul-20 08:33N 43°34' E 007°07'0 0.0
2016-Jul-20 07:27N 43°34' E 007°07'0 0.0
2016-Jul-20 06:33N 43°34' E 007°07'0 0.0
2016-Jul-20 05:33N 43°34' E 007°07'0 0.0
2016-Jul-20 04:33N 43°34' E 007°07'0 0.0
2016-Jul-20 03:27N 43°34' E 007°07'0 0.0
2016-Jul-20 02:33N 43°34' E 007°07'0 0.0
2016-Jul-20 01:33N 43°34' E 007°07'0 0.0
2016-Jul-20 00:30N 43°34' E 007°07'0 0.0
2016-Jul-19 23:30N 43°34' E 007°07'0 0.0
2016-Jul-19 22:30N 43°34' E 007°07'0 0.0
2016-Jul-19 21:30N 43°34' E 007°07'0 0.0
2016-Jul-19 20:33N 43°34' E 007°07'0 0.0
2016-Jul-19 19:27N 43°34' E 007°07'0 0.0
2016-Jul-19 18:33N 43°34' E 007°07'0 0.0
2016-Jul-19 17:12N 43°34' E 007°07'0 0.0
2016-Jul-19 16:33N 43°34' E 007°07'0 0.0
2016-Jul-19 15:33N 43°34' E 007°07'0 0.0
2016-Jul-19 14:27N 43°34' E 007°07'0 0.0
2016-Jul-19 13:30N 43°34' E 007°07'0 0.0
2016-Jul-19 12:33N 43°34' E 007°07'0 0.0
2016-Jul-19 11:27N 43°34' E 007°07'0 0.0
2016-Jul-19 10:33N 43°34' E 007°07'0 0.0
2016-Jul-19 09:33N 43°34' E 007°07'0 0.0
2016-Jul-19 08:33N 43°34' E 007°07'0 0.0
2016-Jul-19 07:33N 43°34' E 007°07'0 0.0
2016-Jul-19 04:33N 43°34' E 007°07'0 0.0
2016-Jul-19 03:33N 43°34' E 007°07'0 0.0
2016-Jul-19 01:33N 43°34' E 007°07'0 0.0
2016-Jul-19 00:27N 43°34' E 007°07'0 0.0
2016-Jul-18 23:33N 43°34' E 007°07'0 0.0
2016-Jul-18 22:33N 43°34' E 007°07'0 0.0
2016-Jul-18 21:33N 43°34' E 007°07'0 0.0
2016-Jul-18 20:21N 43°34' E 007°07'0 0.0
2016-Jul-18 19:27N 43°34' E 007°07'0 0.0
2016-Jul-18 18:33N 43°34' E 007°07'0 0.0
2016-Jul-18 17:33N 43°34' E 007°07'0 0.0
2016-Jul-18 16:30N 43°34' E 007°07'0 0.0
2016-Jul-18 15:33N 43°34' E 007°07'0 0.0
2016-Jul-18 14:33N 43°34' E 007°07'0 0.0
2016-Jul-18 13:33N 43°34' E 007°07'0 0.0
2016-Jul-18 12:33N 43°34' E 007°07'0 0.0
2016-Jul-18 11:33N 43°34' E 007°07'0 0.0
2016-Jul-18 10:33N 43°34' E 007°07'0 0.0
2016-Jul-18 09:27N 43°34' E 007°07'0 0.0
2016-Jul-18 08:33N 43°34' E 007°07'0 0.0
2016-Jul-18 07:33N 43°34' E 007°07'0 0.0
2016-Jul-18 06:21N 43°34' E 007°07'0 0.0
2016-Jul-18 05:33N 43°34' E 007°07'0 0.0
2016-Jul-18 04:33N 43°34' E 007°07'0 0.0
2016-Jul-18 03:33N 43°34' E 007°07'0 0.0
2016-Jul-18 02:27N 43°34' E 007°07'0 0.0
2016-Jul-18 01:33N 43°34' E 007°07'0 0.0
2016-Jul-18 00:33N 43°34' E 007°07'0 0.0
2016-Jul-17 23:33N 43°34' E 007°07'0 0.0
2016-Jul-17 22:33N 43°34' E 007°07'0 0.0
2016-Jul-17 21:21N 43°34' E 007°07'0 0.0
2016-Jul-17 20:33N 43°34' E 007°07'0 0.0
2016-Jul-17 19:33N 43°34' E 007°07'0 0.0
2016-Jul-17 18:09N 43°34' E 007°07'0 0.0
2016-Jul-17 17:33N 43°34' E 007°07'0 0.0
2016-Jul-17 16:33N 43°34' E 007°07'0 0.0
2016-Jul-17 15:33N 43°34' E 007°07'0 0.0
2016-Jul-17 14:27N 43°34' E 007°07'0 0.0
2016-Jul-17 13:33N 43°34' E 007°07'0 0.0
2016-Jul-17 12:25N 43°34' E 007°07'0 0.0
2016-Jul-17 11:31N 43°34' E 007°07'0 0.0
2016-Jul-17 10:27N 43°34' E 007°07'0 0.0
2016-Jul-17 09:21N 43°34' E 007°07'0 0.0
2016-Jul-17 08:33N 43°34' E 007°07'0 0.0
2016-Jul-17 07:19N 43°34' E 007°07'0 0.0
2016-Jul-17 06:31N 43°34' E 007°07'0 0.0
2016-Jul-17 04:33N 43°34' E 007°07'0 0.0
2016-Jul-17 03:33N 43°34' E 007°07'0 0.0
2016-Jul-17 02:27N 43°34' E 007°07'0 0.0
2016-Jul-17 01:33N 43°34' E 007°07'0 0.0
2016-Jul-17 00:21N 43°34' E 007°07'0 0.0
2016-Jul-16 23:27N 43°34' E 007°07'0 0.0
2016-Jul-16 22:27N 43°34' E 007°07'0 0.0
2016-Jul-16 21:33N 43°34' E 007°07'0 0.0
2016-Jul-16 20:33N 43°34' E 007°07'0 0.0
2016-Jul-16 19:33N 43°34' E 007°07'0 0.0
2016-Jul-16 18:33N 43°34' E 007°07'0 0.0
2016-Jul-16 17:33N 43°34' E 007°07'0 0.0
2016-Jul-16 16:03N 43°34' E 007°07'0 0.0
2016-Jul-16 15:33N 43°34' E 007°07'0 0.0
2016-Jul-16 14:33N 43°34' E 007°07'0 0.0
2016-Jul-16 13:33N 43°34' E 007°07'0 0.0
2016-Jul-16 12:33N 43°34' E 007°07'0 0.0
2016-Jul-16 11:33N 43°34' E 007°07'0 0.0
2016-Jul-16 10:33N 43°34' E 007°07'0 0.0
2016-Jul-16 09:33N 43°34' E 007°07'0 0.0
2016-Jul-16 08:33N 43°34' E 007°07'0 0.0
2016-Jul-16 07:33N 43°34' E 007°07'0 0.0
2016-Jul-16 06:33N 43°34' E 007°07'0 0.0
2016-Jul-16 04:33N 43°34' E 007°07'0 0.0
2016-Jul-16 03:33N 43°34' E 007°07'0 0.0
2016-Jul-16 02:33N 43°34' E 007°07'0 0.0
2016-Jul-16 01:33N 43°34' E 007°07'0 0.0
2016-Jul-16 00:33N 43°34' E 007°07'0 0.0
2016-Jul-15 23:33N 43°34' E 007°07'0 0.0
2016-Jul-15 22:27N 43°34' E 007°07'0 0.0
2016-Jul-15 21:33N 43°34' E 007°07'0 0.0
2016-Jul-15 20:33N 43°34' E 007°07'0 0.0
2016-Jul-15 19:27N 43°34' E 007°07'0 0.0
2016-Jul-15 18:27N 43°34' E 007°07'0 0.0
2016-Jul-15 17:33N 43°34' E 007°07'0 0.0
2016-Jul-15 16:33N 43°34' E 007°07'0 0.0
2016-Jul-15 15:33N 43°34' E 007°07'0 0.0
2016-Jul-15 13:33N 43°34' E 007°07'0 0.0
2016-Jul-15 12:15N 43°34' E 007°07'0 0.0
2016-Jul-15 11:33N 43°34' E 007°07'0 0.0
2016-Jul-15 10:31N 43°34' E 007°07'0 0.0
2016-Jul-15 08:30N 43°34' E 007°07'0 0.0
2016-Jul-15 07:30N 43°34' E 007°07'0 0.0
2016-Jul-15 06:30N 43°34' E 007°07'0 0.0
2016-Jul-15 05:30N 43°34' E 007°07'  
Track history (hours):
 
Tides and Currents Weather Stations Pressure Air Temp Water Temp Dewpoint Dewpoint Depression Visibility Wind Speed Wind Dir Waves Ship Positions

Moon River

Last reported at 2016-Jul-25 04:33 UTC. Time now 2016-Jul-25 06:12 UTC.
Position N 43°34' E 007°07'.

Length 24 m.

Type: Pleasure craft. MMSI: 244010895.

Date/timePositionNaut miles runAvg speedWind from/ knotsBaromVisibWave heightAir tempDewpointWater temp
2016-Jul-25 04:33N 43°34' E 007°07'0 0.0
2016-Jul-25 03:32N 43°34' E 007°07'0 0.0
2016-Jul-25 02:32N 43°34' E 007°07'0 0.0
2016-Jul-25 01:26N 43°34' E 007°07'0 0.0
2016-Jul-25 00:32N 43°34' E 007°07'0 0.0
2016-Jul-24 23:32N 43°34' E 007°07'0 0.0
2016-Jul-24 22:32N 43°34' E 007°07'2 2.2
2016-Jul-24 21:29N 43°32' E 007°04'2 0.1
2016-Jul-24 04:33N 43°34' E 007°07'0 0.0
2016-Jul-24 03:27N 43°34' E 007°07'0 0.0
2016-Jul-24 02:33N 43°34' E 007°07'0 0.0
2016-Jul-24 01:27N 43°34' E 007°07'0 0.0
2016-Jul-24 00:33N 43°34' E 007°07'0 0.0
2016-Jul-23 23:21N 43°34' E 007°07'0 0.0
2016-Jul-23 22:27N 43°34' E 007°07'0 0.0
2016-Jul-23 21:33N 43°34' E 007°07'0 0.0
2016-Jul-23 20:33N 43°34' E 007°07'0 0.0
2016-Jul-23 19:27N 43°34' E 007°07'0 0.0
2016-Jul-23 18:21N 43°34' E 007°07'0 0.0
2016-Jul-23 17:33N 43°34' E 007°07'0 0.0
2016-Jul-23 16:33N 43°34' E 007°07'0 0.0
2016-Jul-23 15:33N 43°34' E 007°07'0 0.0
2016-Jul-23 14:09N 43°34' E 007°07'0 0.0
2016-Jul-23 13:33N 43°34' E 007°07'0 0.0
2016-Jul-23 12:33N 43°34' E 007°07'0 0.0
2016-Jul-23 11:33N 43°34' E 007°07'0 0.0
2016-Jul-23 10:33N 43°34' E 007°07'0 0.0
2016-Jul-23 09:33N 43°34' E 007°07'0 0.0
2016-Jul-23 08:33N 43°34' E 007°07'0 0.0
2016-Jul-23 07:27N 43°34' E 007°07'0 0.0
2016-Jul-23 06:29N 43°34' E 007°07'0 0.0
2016-Jul-23 04:17N 43°34' E 007°07'0 0.0
2016-Jul-23 03:23N 43°34' E 007°07'0 0.0
2016-Jul-23 02:29N 43°34' E 007°07'0 0.0
2016-Jul-23 01:29N 43°34' E 007°07'0 0.0
2016-Jul-23 00:23N 43°34' E 007°07'0 0.0
2016-Jul-22 23:29N 43°34' E 007°07'0 0.0
2016-Jul-22 22:30N 43°34' E 007°07'0 0.0
2016-Jul-22 21:30N 43°34' E 007°07'0 0.0
2016-Jul-22 20:29N 43°34' E 007°07'0 0.0
2016-Jul-22 19:29N 43°34' E 007°07'0 0.0
2016-Jul-22 18:33N 43°34' E 007°07'0 0.0
2016-Jul-22 17:33N 43°34' E 007°07'0 0.0
2016-Jul-22 16:12N 43°34' E 007°07'0 0.0
2016-Jul-22 15:30N 43°34' E 007°07'0 0.0
2016-Jul-22 14:30N 43°34' E 007°07'0 0.0
2016-Jul-22 13:30N 43°34' E 007°07'0 0.0
2016-Jul-22 12:30N 43°34' E 007°07'0 0.0
2016-Jul-22 11:24N 43°34' E 007°07'0 0.0
2016-Jul-22 10:30N 43°34' E 007°07'0 0.0
2016-Jul-22 09:30N 43°34' E 007°07'0 0.0
2016-Jul-22 08:30N 43°34' E 007°07'0 0.0
2016-Jul-22 07:30N 43°34' E 007°07'0 0.0
2016-Jul-22 04:30N 43°34' E 007°07'0 0.0
2016-Jul-22 03:30N 43°34' E 007°07'0 0.0
2016-Jul-22 02:30N 43°34' E 007°07'0 0.0
2016-Jul-22 01:30N 43°34' E 007°07'0 0.0
2016-Jul-22 00:12N 43°34' E 007°07'0 0.0
2016-Jul-21 23:30N 43°34' E 007°07'0 0.0
2016-Jul-21 22:30N 43°34' E 007°07'0 0.0
2016-Jul-21 21:30N 43°34' E 007°07'0 0.0
2016-Jul-21 20:30N 43°34' E 007°07'0 0.0
2016-Jul-21 19:28N 43°34' E 007°07'0 0.0
2016-Jul-21 18:22N 43°34' E 007°07'1 1.2
2016-Jul-21 17:33N 43°33' E 007°07'9 8.9
2016-Jul-21 16:31N 43°39' E 007°16'2 0.2
2016-Jul-21 06:27N 43°38' E 007°14'7 7.1
2016-Jul-21 05:30N 43°34' E 007°07'0 0.2
2016-Jul-21 04:24N 43°34' E 007°07'0 0.0
2016-Jul-21 03:30N 43°34' E 007°07'0 0.0
2016-Jul-21 02:30N 43°34' E 007°07'0 0.0
2016-Jul-21 01:30N 43°34' E 007°07'0 0.0
2016-Jul-21 00:24N 43°34' E 007°07'0 0.0
2016-Jul-20 23:30N 43°34' E 007°07'0 0.0
2016-Jul-20 22:18N 43°34' E 007°07'0 0.0
2016-Jul-20 21:30N 43°34' E 007°07'0 0.0
2016-Jul-20 20:30N 43°34' E 007°07'0 0.0
2016-Jul-20 19:30N 43°34' E 007°07'0 0.0
2016-Jul-20 18:30N 43°34' E 007°07'0 0.0
2016-Jul-20 17:30N 43°34' E 007°07'0 0.0
2016-Jul-20 16:30N 43°34' E 007°07'0 0.0
2016-Jul-20 15:21N 43°34' E 007°07'0 0.0
2016-Jul-20 14:33N 43°34' E 007°07'0 0.0
2016-Jul-20 13:33N 43°34' E 007°07'0 0.0
2016-Jul-20 12:33N 43°34' E 007°07'0 0.0
2016-Jul-20 11:27N 43°34' E 007°07'0 0.0
2016-Jul-20 10:33N 43°34' E 007°07'0 0.0
2016-Jul-20 09:27N 43°34' E 007°07'0 0.0
2016-Jul-20 08:33N 43°34' E 007°07'0 0.0
2016-Jul-20 07:27N 43°34' E 007°07'0 0.0
2016-Jul-20 06:33N 43°34' E 007°07'0 0.0
2016-Jul-20 05:33N 43°34' E 007°07'0 0.0
2016-Jul-20 04:33N 43°34' E 007°07'0 0.0
2016-Jul-20 03:27N 43°34' E 007°07'0 0.0
2016-Jul-20 02:33N 43°34' E 007°07'0 0.0
2016-Jul-20 01:33N 43°34' E 007°07'0 0.0
2016-Jul-20 00:30N 43°34' E 007°07'0 0.0
2016-Jul-19 23:30N 43°34' E 007°07'0 0.0
2016-Jul-19 22:30N 43°34' E 007°07'0 0.0
2016-Jul-19 21:30N 43°34' E 007°07'0 0.0
2016-Jul-19 20:33N 43°34' E 007°07'0 0.0
2016-Jul-19 19:27N 43°34' E 007°07'0 0.0
2016-Jul-19 18:33N 43°34' E 007°07'0 0.0
2016-Jul-19 17:12N 43°34' E 007°07'0 0.0
2016-Jul-19 16:33N 43°34' E 007°07'0 0.0
2016-Jul-19 15:33N 43°34' E 007°07'0 0.0
2016-Jul-19 14:27N 43°34' E 007°07'0 0.0
2016-Jul-19 13:30N 43°34' E 007°07'0 0.0
2016-Jul-19 12:33N 43°34' E 007°07'0 0.0
2016-Jul-19 11:27N 43°34' E 007°07'0 0.0
2016-Jul-19 10:33N 43°34' E 007°07'0 0.0
2016-Jul-19 09:33N 43°34' E 007°07'0 0.0
2016-Jul-19 08:33N 43°34' E 007°07'0 0.0
2016-Jul-19 07:33N 43°34' E 007°07'0 0.0
2016-Jul-19 04:33N 43°34' E 007°07'0 0.0
2016-Jul-19 03:33N 43°34' E 007°07'0 0.0
2016-Jul-19 01:33N 43°34' E 007°07'0 0.0
2016-Jul-19 00:27N 43°34' E 007°07'0 0.0
2016-Jul-18 23:33N 43°34' E 007°07'0 0.0
2016-Jul-18 22:33N 43°34' E 007°07'0 0.0
2016-Jul-18 21:33N 43°34' E 007°07'0 0.0
2016-Jul-18 20:21N 43°34' E 007°07'0 0.0
2016-Jul-18 19:27N 43°34' E 007°07'0 0.0
2016-Jul-18 18:33N 43°34' E 007°07'0 0.0
2016-Jul-18 17:33N 43°34' E 007°07'0 0.0
2016-Jul-18 16:30N 43°34' E 007°07'0 0.0
2016-Jul-18 15:33N 43°34' E 007°07'0 0.0
2016-Jul-18 14:33N 43°34' E 007°07'0 0.0
2016-Jul-18 13:33N 43°34' E 007°07'0 0.0
2016-Jul-18 12:33N 43°34' E 007°07'0 0.0
2016-Jul-18 11:33N 43°34' E 007°07'0 0.0
2016-Jul-18 10:33N 43°34' E 007°07'0 0.0
2016-Jul-18 09:27N 43°34' E 007°07'0 0.0
2016-Jul-18 08:33N 43°34' E 007°07'0 0.0
2016-Jul-18 07:33N 43°34' E 007°07'0 0.0
2016-Jul-18 06:21N 43°34' E 007°07'0 0.0
2016-Jul-18 05:33N 43°34' E 007°07'0 0.0
2016-Jul-18 04:33N 43°34' E 007°07'0 0.0
2016-Jul-18 03:33N 43°34' E 007°07'0 0.0
2016-Jul-18 02:27N 43°34' E 007°07'0 0.0
2016-Jul-18 01:33N 43°34' E 007°07'0 0.0
2016-Jul-18 00:33N 43°34' E 007°07'0 0.0
2016-Jul-17 23:33N 43°34' E 007°07'0 0.0
2016-Jul-17 22:33N 43°34' E 007°07'0 0.0
2016-Jul-17 21:21N 43°34' E 007°07'0 0.0
2016-Jul-17 20:33N 43°34' E 007°07'0 0.0
2016-Jul-17 19:33N 43°34' E 007°07'0 0.0
2016-Jul-17 18:09N 43°34' E 007°07'0 0.0
2016-Jul-17 17:33N 43°34' E 007°07'0 0.0
2016-Jul-17 16:33N 43°34' E 007°07'0 0.0
2016-Jul-17 15:33N 43°34' E 007°07'0 0.0
2016-Jul-17 14:27N 43°34' E 007°07'0 0.0
2016-Jul-17 13:33N 43°34' E 007°07'0 0.0
2016-Jul-17 12:25N 43°34' E 007°07'0 0.0
2016-Jul-17 11:31N 43°34' E 007°07'0 0.0
2016-Jul-17 10:27N 43°34' E 007°07'0 0.0
2016-Jul-17 09:21N 43°34' E 007°07'0 0.0
2016-Jul-17 08:33N 43°34' E 007°07'0 0.0
2016-Jul-17 07:19N 43°34' E 007°07'0 0.0
2016-Jul-17 06:31N 43°34' E 007°07'0 0.0
2016-Jul-17 04:33N 43°34' E 007°07'0 0.0
2016-Jul-17 03:33N 43°34' E 007°07'0 0.0
2016-Jul-17 02:27N 43°34' E 007°07'0 0.0
2016-Jul-17 01:33N 43°34' E 007°07'0 0.0
2016-Jul-17 00:21N 43°34' E 007°07'0 0.0
2016-Jul-16 23:27N 43°34' E 007°07'0 0.0
2016-Jul-16 22:27N 43°34' E 007°07'0 0.0
2016-Jul-16 21:33N 43°34' E 007°07'0 0.0
2016-Jul-16 20:33N 43°34' E 007°07'0 0.0
2016-Jul-16 19:33N 43°34' E 007°07'0 0.0
2016-Jul-16 18:33N 43°34' E 007°07'0 0.0
2016-Jul-16 17:33N 43°34' E 007°07'0 0.0
2016-Jul-16 16:03N 43°34' E 007°07'0 0.0
2016-Jul-16 15:33N 43°34' E 007°07'0 0.0
2016-Jul-16 14:33N 43°34' E 007°07'0 0.0
2016-Jul-16 13:33N 43°34' E 007°07'0 0.0
2016-Jul-16 12:33N 43°34' E 007°07'0 0.0
2016-Jul-16 11:33N 43°34' E 007°07'0 0.0
2016-Jul-16 10:33N 43°34' E 007°07'0 0.0
2016-Jul-16 09:33N 43°34' E 007°07'0 0.0
2016-Jul-16 08:33N 43°34' E 007°07'0 0.0
2016-Jul-16 07:33N 43°34' E 007°07'0 0.0
2016-Jul-16 06:33N 43°34' E 007°07'0 0.0
2016-Jul-16 04:33N 43°34' E 007°07'0 0.0
2016-Jul-16 03:33N 43°34' E 007°07'0 0.0
2016-Jul-16 02:33N 43°34' E 007°07'0 0.0
2016-Jul-16 01:33N 43°34' E 007°07'0 0.0
2016-Jul-16 00:33N 43°34' E 007°07'0 0.0
2016-Jul-15 23:33N 43°34' E 007°07'0 0.0
2016-Jul-15 22:27N 43°34' E 007°07'0 0.0
2016-Jul-15 21:33N 43°34' E 007°07'0 0.0
2016-Jul-15 20:33N 43°34' E 007°07'0 0.0
2016-Jul-15 19:27N 43°34' E 007°07'0 0.0
2016-Jul-15 18:27N 43°34' E 007°07'0 0.0
2016-Jul-15 17:33N 43°34' E 007°07'0 0.0
2016-Jul-15 16:33N 43°34' E 007°07'0 0.0
2016-Jul-15 15:33N 43°34' E 007°07'0 0.0
2016-Jul-15 13:33N 43°34' E 007°07'0 0.0
2016-Jul-15 12:15N 43°34' E 007°07'0 0.0
2016-Jul-15 11:33N 43°34' E 007°07'0 0.0
2016-Jul-15 10:31N 43°34' E 007°07'0 0.0
2016-Jul-15 08:30N 43°34' E 007°07'0 0.0
2016-Jul-15 07:30N 43°34' E 007°07'0 0.0
2016-Jul-15 06:30N 43°34' E 007°07'0 0.0
2016-Jul-15 05:30N 43°34' E 007°07'  

Dump ship's entire track history